Time;durP1;ratioP1;P1;durP2;ratioP2;P2;SDS_P1;SDS_P2;PMS_P1;PMS_P2;Temp;Humidity;BMP_temperature;BMP_pressure;BME280_temperature;BME280_humidity;BME280_pressure;Samples;Min_cycle;Max_cycle;Signal;HPM_P1;HPM_P2
2024/01/21 00:02:26;;;;;;;13.30;10.93;;;-0.20;47.20;;;;;;20987;6716;116308;-79
2024/01/21 00:05:02;;;;;;;17.00;14.15;;;-0.20;47.70;;;;;;20599;6772;278563;-77
2024/01/21 00:07:38;;;;;;;17.62;13.60;;;-0.10;46.40;;;;;;20776;6701;334085;-77
2024/01/21 00:10:13;;;;;;;11.87;10.17;;;0.20;45.40;;;;;;20992;6701;118313;-77
2024/01/21 00:12:49;;;;;;;13.20;10.93;;;-0.30;46.00;;;;;;20986;6701;118122;-77
2024/01/21 00:15:25;;;;;;;14.70;10.70;;;-0.30;45.90;;;;;;20956;6711;118247;-77
2024/01/21 00:18:02;;;;;;;17.20;15.03;;;-0.50;46.50;;;;;;20754;6713;307147;-77
2024/01/21 00:20:37;;;;;;;14.90;11.47;;;-0.50;46.50;;;;;;21011;6701;117526;-77
2024/01/21 00:23:12;;;;;;;14.13;11.27;;;-0.50;46.60;;;;;;20995;6701;117025;-77
2024/01/21 00:25:49;;;;;;;11.87;10.40;;;-0.90;47.30;;;;;;21036;6701;117826;-77
2024/01/21 00:28:24;;;;;;;13.07;10.17;;;-0.90;47.20;;;;;;21079;6700;116997;-77
2024/01/21 00:31:00;;;;;;;13.90;9.90;;;-1.10;47.60;;;;;;21075;6700;116951;-77
2024/01/21 00:33:35;;;;;;;15.17;13.67;;;-1.20;47.90;;;;;;20757;6700;306981;-77
2024/01/21 00:36:11;;;;;;;11.23;9.87;;;-1.00;47.60;;;;;;21073;6701;117180;-77
2024/01/21 00:38:46;;;;;;;12.50;10.20;;;-0.90;47.40;;;;;;21073;6701;116949;-77
2024/01/21 00:41:22;;;;;;;9.87;8.43;;;-1.10;47.60;;;;;;21005;6715;121841;-77
2024/01/21 00:43:58;;;;;;;12.23;10.67;;;-1.00;47.90;;;;;;20714;6701;280035;-78
2024/01/21 00:46:34;;;;;;;9.17;8.13;;;-1.00;47.90;;;;;;21073;6696;117162;-76
2024/01/21 00:49:09;;;;;;;13.17;7.90;;;-0.90;47.80;;;;;;21108;6686;116945;-77
2024/01/21 00:51:45;;;;;;;10.20;7.67;;;-1.00;48.10;;;;;;21054;6696;121172;-77
2024/01/21 00:54:21;;;;;;;11.40;8.57;;;-1.10;48.40;;;;;;20949;6684;119686;-77
2024/01/21 00:56:56;;;;;;;10.43;8.63;;;-1.10;48.70;;;;;;21115;6684;117210;-77
2024/01/21 00:59:32;;;;;;;12.50;11.30;;;-1.00;48.20;;;;;;20836;6695;274123;-77
2024/01/21 01:02:08;;;;;;;13.07;11.77;;;-1.00;48.20;;;;;;20843;6699;334804;-77
2024/01/21 01:04:44;;;;;;;10.13;9.13;;;-0.60;46.90;;;;;;20904;6699;119840;-78
2024/01/21 01:07:19;;;;;;;12.83;11.63;;;-0.50;46.90;;;;;;20831;6701;276281;-77
2024/01/21 01:09:56;;;;;;;12.17;11.13;;;-0.40;46.70;;;;;;20896;6686;275227;-77
2024/01/21 01:12:32;;;;;;;13.15;11.95;;;-0.10;46.10;;;;;;20857;6697;305511;-77
2024/01/21 01:15:08;;;;;;;10.93;9.40;;;0.10;45.50;;;;;;20827;6768;117497;-77
2024/01/21 01:17:44;;;;;;;14.80;13.30;;;-0.10;45.60;;;;;;20828;6701;276114;-77
2024/01/21 01:20:19;;;;;;;17.67;15.65;;;-0.10;45.50;;;;;;20806;6711;275766;-77
2024/01/21 01:22:57;;;;;;;19.70;17.33;;;0.00;44.90;;;;;;20784;6713;307320;-77
2024/01/21 01:25:30;;;;;;;17.27;14.00;;;0.10;44.60;;;;;;20997;6713;117355;-77
2024/01/21 01:28:06;;;;;;;19.80;17.23;;;-0.20;44.90;;;;;;20845;6716;304474;-76
2024/01/21 01:30:43;;;;;;;19.87;17.60;;;-0.30;45.50;;;;;;20848;6716;277069;-76
2024/01/21 01:33:17;;;;;;;19.87;17.80;;;-0.20;45.50;;;;;;20764;6711;277073;-76
2024/01/21 01:35:53;;;;;;;21.30;18.92;;;-0.10;45.50;;;;;;20852;6701;275682;-76
2024/01/21 01:38:29;;;;;;;16.07;13.63;;;-0.10;45.40;;;;;;21072;6701;118678;-77
2024/01/21 01:41:04;;;;;;;24.65;20.52;;;-0.40;45.70;;;;;;20838;6700;334315;-77
2024/01/21 01:43:40;;;;;;;24.50;21.77;;;-0.50;46.50;;;;;;20768;6700;289697;-76
2024/01/21 01:46:15;;;;;;;22.37;17.10;;;-0.50;46.60;;;;;;21079;6694;119193;-77
2024/01/21 01:48:51;;;;;;;24.80;22.03;;;-0.70;46.60;;;;;;20786;6719;305436;-76
2024/01/21 01:51:27;;;;;;;29.87;24.60;;;-0.80;47.40;;;;;;20828;6701;277655;-77
2024/01/21 01:54:02;;;;;;;26.67;23.73;;;-0.60;48.00;;;;;;20733;6696;278413;-77
2024/01/21 01:56:39;;;;;;;29.23;24.00;;;-0.50;47.30;;;;;;20838;6701;304372;-77
2024/01/21 01:59:15;;;;;;;26.58;23.75;;;-0.50;47.30;;;;;;20889;6686;306870;-76
2024/01/21 02:01:50;;;;;;;28.98;24.70;;;-0.40;47.20;;;;;;20833;6696;334182;-79
2024/01/21 02:04:26;;;;;;;27.53;23.87;;;-0.40;47.20;;;;;;20677;6701;277576;-76
2024/01/21 02:07:03;;;;;;;26.20;23.20;;;-0.40;48.00;;;;;;20864;6696;294576;-76
2024/01/21 02:09:39;;;;;;;27.75;24.48;;;-0.30;47.40;;;;;;20827;6701;304380;-77
2024/01/21 02:12:14;;;;;;;23.70;18.40;;;-0.30;47.40;;;;;;21014;6716;117585;-77
2024/01/21 02:14:50;;;;;;;25.87;17.07;;;-0.60;47.60;;;;;;20890;6701;120007;-77
2024/01/21 02:17:26;;;;;;;24.67;20.97;;;-1.10;49.10;;;;;;20799;6711;276877;-77
2024/01/21 02:20:03;;;;;;;19.63;15.87;;;-1.10;49.00;;;;;;21017;6713;119052;-77
2024/01/21 02:22:38;;;;;;;22.10;15.53;;;-1.10;49.20;;;;;;21011;6716;117171;-76
2024/01/21 02:25:13;;;;;;;20.50;14.63;;;-1.40;49.60;;;;;;21048;6701;119753;-76
2024/01/21 02:27:49;;;;;;;18.93;14.23;;;-1.70;50.60;;;;;;20992;6716;119802;-77
2024/01/21 02:30:25;;;;;;;17.57;14.10;;;-1.70;50.60;;;;;;21016;6716;116288;-76
2024/01/21 02:33:00;;;;;;;19.07;14.27;;;-1.90;50.80;;;;;;21020;6701;120412;-79
2024/01/21 02:35:36;;;;;;;23.70;19.37;;;-2.00;51.20;;;;;;20782;6716;311135;-78
2024/01/21 02:38:12;;;;;;;18.90;15.20;;;-1.80;51.60;;;;;;21028;6711;118350;-77
2024/01/21 02:40:47;;;;;;;22.43;19.63;;;-1.70;51.30;;;;;;20832;6705;304475;-77
2024/01/21 02:43:24;;;;;;;21.80;19.50;;;-1.10;50.70;;;;;;20776;6701;306552;-78
2024/01/21 02:46:01;;;;;;;17.30;15.50;;;-1.20;50.60;;;;;;21062;6701;117405;-77
2024/01/21 02:48:38;;;;;;;19.87;14.20;;;-1.10;50.40;;;;;;21067;6701;117049;-80
2024/01/21 02:51:13;;;;;;;22.03;19.23;;;-1.30;50.70;;;;;;20889;6685;303922;-76
2024/01/21 02:53:49;;;;;;;21.62;19.33;;;-1.30;50.80;;;;;;20731;6696;292088;-76
2024/01/21 02:56:25;;;;;;;18.97;13.70;;;-1.00;50.20;;;;;;21075;6696;120751;-77
2024/01/21 02:59:01;;;;;;;16.23;12.80;;;-1.20;50.30;;;;;;21064;6701;122973;-77
2024/01/21 03:01:36;;;;;;;18.20;16.30;;;-1.30;50.20;;;;;;20842;6696;274908;-77
2024/01/21 03:04:12;;;;;;;19.73;17.62;;;-1.20;50.30;;;;;;20674;6705;320792;-77
2024/01/21 03:06:49;;;;;;;20.23;18.13;;;-0.90;49.40;;;;;;20777;6719;275278;-76
2024/01/21 03:09:24;;;;;;;16.20;13.47;;;-0.60;48.70;;;;;;20972;6716;121015;-77
2024/01/21 03:12:00;;;;;;;19.13;16.23;;;-0.80;48.60;;;;;;20767;6711;308311;-76
2024/01/21 03:14:36;;;;;;;15.27;13.63;;;-0.80;48.80;;;;;;20801;6713;117605;-76
2024/01/21 03:17:14;;;;;;;16.97;12.23;;;-0.90;48.80;;;;;;21043;6701;117491;-76
2024/01/21 03:19:50;;;;;;;18.37;16.37;;;-1.10;49.30;;;;;;20818;6700;304970;-76
2024/01/21 03:22:25;;;;;;;18.47;16.17;;;-1.10;49.20;;;;;;20834;6701;305837;-75
2024/01/21 03:25:01;;;;;;;17.67;15.80;;;-0.90;48.40;;;;;;20590;6701;307524;-76
2024/01/21 03:27:36;;;;;;;16.73;12.30;;;-0.60;47.80;;;;;;21000;6716;117775;-76
2024/01/21 03:30:13;;;;;;;16.93;15.23;;;-0.80;47.90;;;;;;20847;6701;306340;-75
2024/01/21 03:32:48;;;;;;;14.60;12.73;;;-0.80;47.90;;;;;;21083;6686;118395;-76
2024/01/21 03:35:24;;;;;;;15.30;12.30;;;-0.80;48.20;;;;;;21051;6696;117102;-76
2024/01/21 03:38:00;;;;;;;17.48;15.68;;;-1.10;48.90;;;;;;20842;6696;334292;-77
2024/01/21 03:40:37;;;;;;;18.42;16.05;;;-1.10;48.80;;;;;;20844;6699;333320;-77
2024/01/21 03:43:13;;;;;;;18.53;16.73;;;-0.60;47.70;;;;;;20807;6699;310087;-77
2024/01/21 03:45:49;;;;;;;17.27;13.37;;;-0.60;47.70;;;;;;21004;6711;119437;-77
2024/01/21 03:48:24;;;;;;;14.13;12.10;;;-0.70;47.80;;;;;;21028;6711;117110;-77
2024/01/21 03:51:00;;;;;;;18.07;16.17;;;-1.00;48.40;;;;;;20841;6716;304550;-77
2024/01/21 03:53:36;;;;;;;17.90;16.00;;;-1.00;48.60;;;;;;20758;6701;290872;-77
2024/01/21 03:56:15;;;;;;;18.02;16.23;;;-0.50;47.60;;;;;;20838;6701;275374;-77
2024/01/21 03:58:51;;;;;;;15.90;13.33;;;-0.60;47.50;;;;;;21063;6701;117237;-77
2024/01/21 04:01:26;;;;;;;17.30;12.67;;;-0.70;47.80;;;;;;21000;6716;123995;-77
2024/01/21 04:04:02;;;;;;;17.90;16.00;;;-1.00;48.30;;;;;;20756;6700;280002;-76
2024/01/21 04:06:40;;;;;;;19.23;17.13;;;-1.00;48.60;;;;;;20833;6696;304327;-76
2024/01/21 04:09:22;;;;;;;13.77;12.23;;;-0.80;48.10;;;;;;21079;6696;116963;-77
2024/01/21 04:11:52;;;;;;;18.00;11.77;;;-0.90;48.20;;;;;;21051;6696;116924;-77
2024/01/21 04:14:28;;;;;;;16.90;15.10;;;-1.20;48.80;;;;;;20700;6705;306649;-76
2024/01/21 04:17:04;;;;;;;16.62;14.87;;;-1.20;48.80;;;;;;20882;6690;306086;-76
2024/01/21 04:19:39;;;;;;;16.27;14.77;;;-0.90;48.20;;;;;;20866;6690;277585;-77
2024/01/21 04:22:16;;;;;;;16.70;15.00;;;-0.70;47.30;;;;;;20881;6690;275068;-76
2024/01/21 04:24:52;;;;;;;16.03;14.43;;;-0.50;46.60;;;;;;20661;6690;276588;-77
2024/01/21 04:27:30;;;;;;;16.10;14.45;;;-0.30;46.40;;;;;;20814;6705;333704;-77
2024/01/21 04:30:03;;;;;;;11.50;10.30;;;-0.20;46.00;;;;;;21018;6716;117248;-77
2024/01/21 04:32:39;;;;;;;14.20;12.80;;;-0.40;46.30;;;;;;20808;6711;304097;-76
2024/01/21 04:35:14;;;;;;;13.93;12.60;;;-0.50;46.40;;;;;;20885;6686;275259;-77
2024/01/21 04:37:50;;;;;;;12.17;10.57;;;-0.40;45.90;;;;;;21041;6701;119236;-77
2024/01/21 04:40:26;;;;;;;10.07;9.20;;;-0.50;46.20;;;;;;21054;6704;118255;-78
2024/01/21 04:43:01;;;;;;;10.10;9.03;;;-0.80;47.00;;;;;;20962;6712;119388;-76
2024/01/21 04:45:37;;;;;;;14.00;12.60;;;-1.10;47.70;;;;;;20812;6699;302596;-77
2024/01/21 04:48:12;;;;;;;12.67;10.47;;;-1.10;47.60;;;;;;21065;6699;117548;-76
2024/01/21 04:50:49;;;;;;;12.30;9.90;;;-1.20;48.20;;;;;;21061;6699;118646;-76
2024/01/21 04:53:24;;;;;;;15.45;12.52;;;-1.30;48.10;;;;;;20751;6699;335320;-77
2024/01/21 04:56:00;;;;;;;13.23;11.90;;;-1.20;47.90;;;;;;20837;6701;337049;-77
2024/01/21 04:58:35;;;;;;;13.03;11.73;;;-0.90;47.20;;;;;;20861;6694;310878;-77
2024/01/21 05:01:12;;;;;;;12.67;11.50;;;-0.40;45.80;;;;;;20844;6701;278165;-77
2024/01/21 05:03:47;;;;;;;13.80;12.40;;;-0.40;45.80;;;;;;20737;6701;277680;-77
2024/01/21 05:06:23;;;;;;;11.83;10.50;;;-0.20;45.30;;;;;;21094;6686;117130;-76
2024/01/21 05:08:59;;;;;;;10.27;9.13;;;-0.70;46.50;;;;;;21047;6704;120377;-77
2024/01/21 05:11:38;;;;;;;13.87;12.57;;;-0.70;46.50;;;;;;20864;6686;334700;-77
2024/01/21 05:14:10;;;;;;;10.30;9.27;;;-0.70;46.60;;;;;;20946;6685;118572;-76
2024/01/21 05:16:47;;;;;;;12.97;11.67;;;-0.70;46.90;;;;;;20889;6686;276603;-76
2024/01/21 05:19:22;;;;;;;9.73;8.73;;;-0.80;46.70;;;;;;21100;6686;122552;-76
2024/01/21 05:21:58;;;;;;;8.73;7.80;;;-0.80;47.00;;;;;;21059;6700;116800;-77
2024/01/21 05:24:37;;;;;;;14.30;12.90;;;-1.00;47.50;;;;;;20653;6701;280226;-76
2024/01/21 05:27:13;;;;;;;11.57;10.40;;;-0.90;47.20;;;;;;21053;6701;123088;-76
2024/01/21 05:29:49;;;;;;;14.83;13.43;;;-1.00;46.90;;;;;;20778;6704;306228;-76
2024/01/21 05:32:28;;;;;;;12.63;11.13;;;-0.90;46.40;;;;;;21010;6704;117467;-76
2024/01/21 05:35:01;;;;;;;14.37;12.90;;;-1.10;46.40;;;;;;20571;6704;308903;-77
2024/01/21 05:37:36;;;;;;;11.17;9.83;;;-1.00;46.70;;;;;;21043;6686;118256;-77
2024/01/21 05:40:12;;;;;;;10.33;8.57;;;-1.10;46.90;;;;;;21053;6690;116897;-75
2024/01/21 05:42:47;;;;;;;8.90;7.90;;;-1.20;47.60;;;;;;21048;6701;118552;-75
2024/01/21 05:45:23;;;;;;;10.57;9.43;;;-1.40;48.10;;;;;;20850;6696;325636;-75
2024/01/21 05:47:59;;;;;;;8.43;7.63;;;-1.30;47.90;;;;;;21084;6690;117196;-76
2024/01/21 05:50:34;;;;;;;7.87;7.10;;;-1.20;48.00;;;;;;21058;6716;116735;-78
2024/01/21 05:53:10;;;;;;;10.87;9.77;;;-1.30;48.40;;;;;;20771;6711;278865;-79
2024/01/21 05:55:45;;;;;;;8.40;7.60;;;-1.20;48.10;;;;;;21002;6709;119395;-77
2024/01/21 05:58:21;;;;;;;7.93;7.23;;;-1.20;48.00;;;;;;21005;6712;116868;-76
2024/01/21 06:00:56;;;;;;;7.93;7.13;;;-1.30;48.40;;;;;;21071;6694;117046;-76
2024/01/21 06:03:32;;;;;;;10.63;9.60;;;-1.40;48.90;;;;;;20668;6716;287700;-76
2024/01/21 06:06:08;;;;;;;11.47;10.37;;;-1.30;48.70;;;;;;20823;6701;275218;-76
2024/01/21 06:08:44;;;;;;;11.00;10.00;;;-0.60;46.50;;;;;;20789;6716;276557;-76
2024/01/21 06:11:20;;;;;;;11.97;10.87;;;-0.60;46.40;;;;;;20791;6711;307567;-76
2024/01/21 06:13:55;;;;;;;9.63;8.37;;;-0.40;45.70;;;;;;20952;6701;116532;-76
2024/01/21 06:16:31;;;;;;;12.93;11.73;;;-0.60;46.00;;;;;;20788;6716;303628;-76
2024/01/21 06:19:07;;;;;;;12.70;10.17;;;-0.60;46.00;;;;;;21013;6711;117705;-76
2024/01/21 06:21:45;;;;;;;9.00;8.13;;;-1.10;46.90;;;;;;20992;6713;117879;-76
2024/01/21 06:24:22;;;;;;;8.93;8.03;;;-1.30;47.30;;;;;;20851;6707;278806;-76
2024/01/21 06:26:57;;;;;;;10.00;7.63;;;-1.30;47.40;;;;;;21058;6700;116635;-76
2024/01/21 06:29:33;;;;;;;9.93;7.83;;;-1.50;47.90;;;;;;21044;6700;117437;-77
2024/01/21 06:32:09;;;;;;;10.77;9.67;;;-1.50;48.40;;;;;;20884;6686;304834;-76
2024/01/21 06:34:45;;;;;;;9.70;8.50;;;-1.50;48.50;;;;;;20888;6701;118672;-76
2024/01/21 06:37:20;;;;;;;9.07;8.17;;;-1.40;48.30;;;;;;21105;6686;117084;-77
2024/01/21 06:39:56;;;;;;;12.03;10.80;;;-1.60;48.50;;;;;;20856;6694;276931;-76
2024/01/21 06:42:32;;;;;;;12.93;11.10;;;-1.40;48.60;;;;;;20830;6701;275619;-77
2024/01/21 06:45:07;;;;;;;12.40;11.27;;;-1.10;47.90;;;;;;20610;6770;307491;-76
2024/01/21 06:47:43;;;;;;;9.97;8.97;;;-0.80;47.00;;;;;;21026;6701;117455;-76
2024/01/21 06:50:21;;;;;;;8.73;7.90;;;-1.10;47.70;;;;;;21058;6701;117000;-75
2024/01/21 06:52:56;;;;;;;11.40;10.40;;;-1.10;47.80;;;;;;20807;6701;275218;-76
2024/01/21 06:55:31;;;;;;;9.13;8.27;;;-1.10;47.70;;;;;;21037;6701;126714;-76
2024/01/21 06:58:07;;;;;;;7.93;7.13;;;-1.10;47.80;;;;;;21055;6701;118144;-75
2024/01/21 07:00:42;;;;;;;9.20;7.77;;;-1.30;48.30;;;;;;21063;6696;116569;-75
2024/01/21 07:03:19;;;;;;;9.73;8.17;;;-1.50;48.70;;;;;;20975;6705;116758;-76
2024/01/21 07:05:54;;;;;;;12.70;11.40;;;-1.60;49.20;;;;;;20770;6715;277209;-76
2024/01/21 07:08:30;;;;;;;9.97;8.90;;;-1.50;48.70;;;;;;21019;6711;119663;-76
2024/01/21 07:11:09;;;;;;;10.30;8.97;;;-1.50;48.60;;;;;;20999;6719;116712;-76
2024/01/21 07:13:47;;;;;;;9.47;8.47;;;-1.60;48.90;;;;;;20978;6686;117275;-77
2024/01/21 07:16:24;;;;;;;9.50;8.57;;;-1.80;49.70;;;;;;21047;6701;119870;-75
2024/01/21 07:18:56;;;;;;;10.97;8.70;;;-1.90;49.60;;;;;;21024;6711;117616;-75
2024/01/21 07:21:35;;;;;;;8.77;7.83;;;-2.00;49.80;;;;;;21041;6701;120540;-76
2024/01/21 07:24:07;;;;;;;12.67;11.47;;;-2.00;50.20;;;;;;20669;6711;293309;-76
2024/01/21 07:26:43;;;;;;;9.73;8.77;;;-1.90;49.90;;;;;;21046;6716;118144;-76
2024/01/21 07:29:19;;;;;;;13.33;12.03;;;-1.70;49.80;;;;;;20840;6701;304407;-75
2024/01/21 07:31:54;;;;;;;12.93;11.77;;;-1.50;49.40;;;;;;20822;6701;275310;-76
2024/01/21 07:34:30;;;;;;;13.73;12.33;;;-1.20;48.50;;;;;;20691;6701;308591;-76
2024/01/21 07:37:05;;;;;;;9.77;8.73;;;-0.80;47.70;;;;;;20998;6715;116992;-75
2024/01/21 07:39:46;;;;;;;12.27;10.37;;;-1.10;48.30;;;;;;21009;6711;116792;-74
2024/01/21 07:42:18;;;;;;;10.67;9.57;;;-1.10;48.30;;;;;;21053;6700;117151;-78
2024/01/21 07:44:54;;;;;;;9.50;8.23;;;-1.20;49.00;;;;;;20835;6700;116820;-78
2024/01/21 07:47:32;;;;;;;12.03;11.03;;;-1.30;49.50;;;;;;20744;6719;307664;-76
2024/01/21 07:50:06;;;;;;;10.23;9.23;;;-1.10;49.50;;;;;;21024;6694;117091;-77
2024/01/21 07:52:44;;;;;;;14.27;13.07;;;-1.10;49.30;;;;;;20830;6701;276777;-77
2024/01/21 07:55:20;;;;;;;11.80;9.70;;;-0.80;48.80;;;;;;21048;6701;119599;-76
2024/01/21 07:57:56;;;;;;;12.40;11.30;;;-0.70;48.80;;;;;;20793;6711;305973;-79
2024/01/21 08:00:32;;;;;;;11.27;10.07;;;-0.60;48.30;;;;;;21007;6716;117095;-78
2024/01/21 08:03:07;;;;;;;9.67;8.67;;;-0.50;48.40;;;;;;20975;6716;117678;-79
2024/01/21 08:05:43;;;;;;;8.30;7.60;;;-0.60;48.90;;;;;;21035;6701;122402;-79
2024/01/21 08:08:21;;;;;;;12.40;11.30;;;-0.80;49.40;;;;;;20735;6719;279336;-78
2024/01/21 08:10:54;;;;;;;318.03;160.77;;;-0.60;49.00;;;;;;20789;6701;305146;-80
2024/01/21 08:13:30;;;;;;;387.30;185.33;;;0.20;47.10;;;;;;20740;6696;308201;-77
2024/01/21 08:16:06;;;;;;;32.40;22.33;;;0.20;47.10;;;;;;20775;6718;275832;-78
2024/01/21 08:18:42;;;;;;;17.07;15.27;;;0.40;46.10;;;;;;20768;6713;276394;-79
2024/01/21 08:21:17;;;;;;;15.37;13.97;;;0.60;45.30;;;;;;20808;6707;304353;-78
2024/01/21 08:23:53;;;;;;;10.97;9.87;;;0.80;44.90;;;;;;20958;6686;117795;-78
2024/01/21 08:26:28;;;;;;;10.17;9.17;;;0.70;45.50;;;;;;21000;6715;117432;-77
2024/01/21 08:29:04;;;;;;;11.30;10.30;;;0.40;46.50;;;;;;20852;6696;306749;-77
2024/01/21 08:31:46;;;;;;;10.83;9.93;;;0.50;46.90;;;;;;20769;6716;305503;-77
2024/01/21 08:34:22;;;;;;;10.00;9.20;;;1.10;45.50;;;;;;20632;6716;336909;-77
2024/01/21 08:36:58;;;;;;;7.87;7.07;;;1.10;45.50;;;;;;21054;6701;117148;-76
2024/01/21 08:39:34;;;;;;;8.57;7.23;;;1.20;46.00;;;;;;21001;6711;117094;-75
2024/01/21 08:42:09;;;;;;;7.33;6.63;;;1.00;46.70;;;;;;21056;6701;116745;-75
2024/01/21 08:44:45;;;;;;;7.73;7.00;;;0.90;47.50;;;;;;20897;6701;120550;-76
2024/01/21 08:47:21;;;;;;;10.27;7.77;;;0.70;48.30;;;;;;21036;6701;116458;-80
2024/01/21 08:49:57;;;;;;;11.27;10.18;;;0.70;48.30;;;;;;20828;6700;274769;-77
2024/01/21 08:52:32;;;;;;;16.80;15.02;;;0.90;47.40;;;;;;20844;6700;275826;-79
2024/01/21 08:55:08;;;;;;;13.63;12.03;;;1.30;46.20;;;;;;20793;6782;118309;-80
2024/01/21 08:57:44;;;;;;;30.17;19.30;;;1.30;47.40;;;;;;21002;6711;117339;-82
2024/01/21 09:00:23;;;;;;;32.85;27.42;;;1.20;47.00;;;;;;20835;6696;335474;-79
2024/01/21 09:02:59;;;;;;;16.85;15.35;;;1.70;46.20;;;;;;20819;6701;334373;-85
2024/01/21 09:05:32;;;;;;;15.57;13.97;;;1.70;46.20;;;;;;21047;6696;119813;-80
2024/01/21 09:08:07;;;;;;;8.97;8.07;;;1.70;46.50;;;;;;21044;6701;118313;-74
2024/01/21 09:10:43;;;;;;;14.77;13.38;;;1.50;47.20;;;;;;20855;6696;334555;-74
2024/01/21 09:13:19;;;;;;;15.60;13.43;;;1.60;46.80;;;;;;21000;6701;116868;-75
2024/01/21 09:15:54;;;;;;;17.17;12.33;;;1.60;47.00;;;;;;21075;6696;118590;-73
2024/01/21 09:18:34;;;;;;;14.97;13.57;;;1.40;47.40;;;;;;20870;6696;305605;-76
2024/01/21 09:21:09;;;;;;;14.93;11.00;;;1.40;47.10;;;;;;20986;6716;122933;-76
2024/01/21 09:23:45;;;;;;;11.43;10.23;;;1.40;47.10;;;;;;20896;6716;117981;-76
2024/01/21 09:26:20;;;;;;;15.40;13.80;;;1.20;47.60;;;;;;20818;6704;274788;-75
2024/01/21 09:28:58;;;;;;;11.83;10.67;;;1.20;47.40;;;;;;20964;6716;117624;-79
2024/01/21 09:31:34;;;;;;;12.27;11.18;;;1.20;47.70;;;;;;20785;6711;308695;-78
2024/01/21 09:34:13;;;;;;;9.82;9.00;;;1.50;46.40;;;;;;20661;6713;333390;-79
2024/01/21 09:36:46;;;;;;;10.43;9.52;;;1.50;46.40;;;;;;20837;6701;275297;-79
2024/01/21 09:39:23;;;;;;;10.18;9.38;;;1.80;45.30;;;;;;20848;6696;305217;-78
2024/01/21 09:41:58;;;;;;;8.77;7.97;;;2.00;44.70;;;;;;21038;6696;117385;-74
2024/01/21 09:44:34;;;;;;;8.90;7.63;;;1.90;45.20;;;;;;20907;6686;116940;-77
2024/01/21 09:47:10;;;;;;;10.37;9.47;;;1.70;45.90;;;;;;20837;6701;309682;-77
2024/01/21 09:49:46;;;;;;;8.27;7.50;;;1.70;45.90;;;;;;21070;6686;116990;-73
2024/01/21 09:52:21;;;;;;;7.77;7.07;;;1.70;46.30;;;;;;21092;6686;116501;-75
2024/01/21 09:54:58;;;;;;;8.73;8.07;;;1.70;46.30;;;;;;20629;6696;278003;-77
2024/01/21 09:57:36;;;;;;;12.15;10.80;;;1.70;46.30;;;;;;20810;6701;317597;-78
2024/01/21 10:00:10;;;;;;;8.83;8.03;;;2.10;45.40;;;;;;21063;6685;119766;-78
2024/01/21 10:02:46;;;;;;;22.93;15.93;;;2.20;45.70;;;;;;20852;6686;277917;-76
2024/01/21 10:05:21;;;;;;;12.27;10.90;;;2.30;45.10;;;;;;20882;6686;303990;-75
2024/01/21 10:07:57;;;;;;;9.77;8.87;;;2.60;44.50;;;;;;20829;6700;280521;-73
2024/01/21 10:10:34;;;;;;;12.50;9.37;;;2.90;44.00;;;;;;21015;6704;116591;-74
2024/01/21 10:13:12;;;;;;;24.50;17.77;;;2.90;44.50;;;;;;20771;6704;309762;-74
2024/01/21 10:15:45;;;;;;;12.63;11.27;;;3.00;44.10;;;;;;20821;6701;297760;-74
2024/01/21 10:18:20;;;;;;;9.40;8.63;;;3.20;43.90;;;;;;20836;6701;303620;-74
2024/01/21 10:20:56;;;;;;;8.53;7.80;;;3.50;43.40;;;;;;21105;6686;119448;-74
2024/01/21 10:23:32;;;;;;;13.27;11.93;;;3.50;44.10;;;;;;20995;6686;117082;-74
2024/01/21 10:26:07;;;;;;;15.33;13.43;;;3.30;44.90;;;;;;20872;6686;282672;-75
2024/01/21 10:28:43;;;;;;;20.40;13.73;;;3.30;46.10;;;;;;21086;6686;116840;-73
2024/01/21 10:31:20;;;;;;;10.90;9.23;;;3.40;46.40;;;;;;21061;6701;120018;-79
2024/01/21 10:33:55;;;;;;;10.37;9.47;;;3.10;46.50;;;;;;20748;6686;296590;-77
2024/01/21 10:36:31;;;;;;;8.63;7.43;;;3.20;45.80;;;;;;21050;6701;116865;-78
2024/01/21 10:39:08;;;;;;;7.43;6.83;;;3.20;46.10;;;;;;21053;6686;117590;-75
2024/01/21 10:41:42;;;;;;;9.83;9.07;;;3.10;46.60;;;;;;20819;6686;333101;-74
2024/01/21 10:44:18;;;;;;;9.53;8.63;;;3.20;45.80;;;;;;20770;6686;116967;-75
2024/01/21 10:46:57;;;;;;;26.37;23.57;;;3.40;46.10;;;;;;21080;6686;119766;-74
2024/01/21 10:49:29;;;;;;;18.67;15.43;;;3.40;46.80;;;;;;20889;6686;117994;-80
2024/01/21 10:52:05;;;;;;;16.97;15.40;;;3.30;47.40;;;;;;20640;6686;333288;-77
2024/01/21 10:54:40;;;;;;;15.90;14.40;;;3.50;47.70;;;;;;20678;6686;279880;-80
2024/01/21 10:57:17;;;;;;;13.63;11.87;;;3.80;47.30;;;;;;20938;6686;121131;-74
2024/01/21 10:59:52;;;;;;;15.73;14.33;;;3.90;47.30;;;;;;20594;6701;287237;-76
2024/01/21 11:02:30;;;;;;;16.30;14.77;;;3.90;47.30;;;;;;20641;6701;275333;-76
2024/01/21 11:05:04;;;;;;;12.97;11.67;;;4.10;46.80;;;;;;20644;6782;119289;-78
2024/01/21 11:07:39;;;;;;;14.60;13.30;;;4.10;47.00;;;;;;20662;6701;304466;-76
2024/01/21 11:10:15;;;;;;;11.53;10.43;;;4.10;46.90;;;;;;20863;6701;116923;-76
2024/01/21 11:12:54;;;;;;;9.57;8.60;;;4.00;47.00;;;;;;20922;6685;120067;-79
2024/01/21 11:15:26;;;;;;;11.97;10.97;;;3.80;47.50;;;;;;20753;6715;277783;-78
2024/01/21 11:18:09;;;;;;;10.67;9.67;;;3.70;46.80;;;;;;20855;6690;117553;-83
2024/01/21 11:20:44;;;;;;;12.47;11.37;;;3.70;47.10;;;;;;20668;6701;281346;-78
2024/01/21 11:23:22;;;;;;;11.27;10.37;;;4.10;46.00;;;;;;20503;6696;299310;-79
2024/01/21 11:25:57;;;;;;;10.70;9.70;;;4.10;46.00;;;;;;20884;6681;118422;-77
2024/01/21 11:28:33;;;;;;;9.37;8.33;;;4.10;46.40;;;;;;20832;6696;116541;-79
2024/01/21 11:31:10;;;;;;;9.33;8.43;;;3.90;46.90;;;;;;20894;6686;117949;-76
2024/01/21 11:33:44;;;;;;;10.82;9.82;;;3.80;47.60;;;;;;20738;6701;306531;-77
2024/01/21 11:36:20;;;;;;;9.93;9.13;;;4.20;45.00;;;;;;20634;6774;334512;-77
2024/01/21 11:38:56;;;;;;;10.23;9.35;;;4.30;45.00;;;;;;20562;6716;275263;-77
2024/01/21 11:41:41;;;;;;;10.20;9.40;;;4.50;44.10;;;;;;20546;6711;275317;-78
2024/01/21 11:44:13;;;;;;;10.10;8.53;;;4.70;43.60;;;;;;20606;6719;120036;-78
2024/01/21 11:46:49;;;;;;;9.17;8.27;;;4.60;44.30;;;;;;20741;6717;119466;-78
2024/01/21 11:49:25;;;;;;;8.70;7.83;;;4.30;45.00;;;;;;20800;6711;117081;-78
2024/01/21 11:52:05;;;;;;;7.07;6.53;;;3.80;46.50;;;;;;20796;6711;116280;-77
2024/01/21 11:54:38;;;;;;;9.07;8.38;;;3.80;46.40;;;;;;20674;6701;336540;-79
2024/01/21 11:57:12;;;;;;;9.68;8.77;;;3.90;45.80;;;;;;20771;6716;305134;-77
2024/01/21 11:59:48;;;;;;;7.60;6.90;;;4.20;45.20;;;;;;21030;6701;117375;-76
2024/01/21 12:02:26;;;;;;;8.37;7.13;;;4.30;46.00;;;;;;21030;6711;116475;-78
2024/01/21 12:05:03;;;;;;;7.33;6.73;;;4.20;47.40;;;;;;20811;6775;117137;-76
2024/01/21 12:07:40;;;;;;;8.95;8.25;;;4.20;47.40;;;;;;20822;6704;305543;-77
2024/01/21 12:10:15;;;;;;;9.00;8.20;;;4.40;47.10;;;;;;20860;6692;304355;-79
2024/01/21 12:12:51;;;;;;;9.30;8.50;;;4.80;46.00;;;;;;21087;6686;118414;-77
2024/01/21 12:15:28;;;;;;;9.70;8.98;;;4.90;46.20;;;;;;20814;6696;304704;-79
2024/01/21 12:18:03;;;;;;;12.43;11.33;;;5.10;46.20;;;;;;20627;6690;317927;-76
2024/01/21 12:20:40;;;;;;;12.97;11.73;;;5.30;45.70;;;;;;20749;6716;117406;-76
2024/01/21 12:23:21;;;;;;;12.57;10.63;;;5.20;46.00;;;;;;20761;6710;119492;-78
2024/01/21 12:26:00;;;;;;;14.18;12.88;;;4.90;46.60;;;;;;20611;6701;305038;-78
2024/01/21 12:28:36;;;;;;;14.05;12.68;;;4.90;46.40;;;;;;20831;6700;337751;-79
2024/01/21 12:31:09;;;;;;;10.90;9.90;;;5.20;46.30;;;;;;20753;6715;116973;-79
2024/01/21 12:33:44;;;;;;;10.63;9.70;;;5.20;46.60;;;;;;20670;6711;118832;-77
2024/01/21 12:36:20;;;;;;;9.57;8.77;;;4.90;47.70;;;;;;20725;6709;117314;-78
2024/01/21 12:38:56;;;;;;;11.85;10.95;;;4.90;47.70;;;;;;20532;6701;303476;-77
2024/01/21 13:38:17;;;;;;;7.87;7.20;;;7.80;41.00;;;;;;21129;6529;81664;-80
2024/01/21 13:40:43;;;;;;;9.23;7.97;;;7.60;42.00;;;;;;20857;6817;117229;-76
2024/01/21 13:43:09;;;;;;;9.20;8.40;;;7.20;42.50;;;;;;20294;6804;309207;-79
2024/01/21 13:45:36;;;;;;;9.30;8.60;;;7.30;42.30;;;;;;20066;6874;310653;-82
2024/01/21 13:48:02;;;;;;;9.20;8.40;;;7.30;42.30;;;;;;20089;6886;307793;-79
2024/01/21 13:50:29;;;;;;;8.27;7.53;;;7.30;43.00;;;;;;20309;6886;117385;-79
2024/01/21 13:52:58;;;;;;;7.10;6.60;;;7.30;43.00;;;;;;20564;6887;117324;-79
2024/01/21 13:55:22;;;;;;;8.13;7.50;;;7.00;43.80;;;;;;20205;6887;282545;-80
2024/01/21 13:57:48;;;;;;;9.53;8.03;;;6.90;43.70;;;;;;20331;6871;117534;-78
2024/01/21 14:00:13;;;;;;;8.20;7.60;;;6.90;44.50;;;;;;20121;6871;310588;-77
2024/01/21 14:02:39;;;;;;;7.73;6.90;;;6.90;43.40;;;;;;20239;6883;120607;-78
2024/01/21 14:05:05;;;;;;;6.80;6.27;;;6.90;44.10;;;;;;20379;6868;117988;-75
2024/01/21 14:07:31;;;;;;;7.97;7.30;;;6.70;44.80;;;;;;20386;6858;340406;-80